sensor_id;sensor_type;location;lat;lon;timestamp;P1;durP1;ratioP1;P2;durP2;ratioP2
75935;SDS011;64614;32.062;34.834;2023-08-06T00:02:20;2.67;;;1.88;;
75935;SDS011;64614;32.062;34.834;2023-08-06T00:04:45;3.45;;;1.92;;
75935;SDS011;64614;32.062;34.834;2023-08-06T00:07:11;2.85;;;2.08;;
75935;SDS011;64614;32.062;34.834;2023-08-06T00:09:37;2.67;;;1.95;;
75935;SDS011;64614;32.062;34.834;2023-08-06T00:12:02;2.80;;;1.90;;
75935;SDS011;64614;32.062;34.834;2023-08-06T00:14:28;3.10;;;1.90;;
75935;SDS011;64614;32.062;34.834;2023-08-06T00:16:54;3.80;;;2.30;;
75935;SDS011;64614;32.062;34.834;2023-08-06T00:19:19;2.85;;;1.88;;
75935;SDS011;64614;32.062;34.834;2023-08-06T00:21:45;3.47;;;2.00;;
75935;SDS011;64614;32.062;34.834;2023-08-06T00:24:10;3.25;;;2.00;;
75935;SDS011;64614;32.062;34.834;2023-08-06T00:26:36;2.58;;;2.00;;
75935;SDS011;64614;32.062;34.834;2023-08-06T00:29:02;2.75;;;2.10;;
75935;SDS011;64614;32.062;34.834;2023-08-06T00:31:27;3.38;;;2.00;;
75935;SDS011;64614;32.062;34.834;2023-08-06T00:33:53;3.35;;;2.10;;
75935;SDS011;64614;32.062;34.834;2023-08-06T00:36:19;3.15;;;2.10;;
75935;SDS011;64614;32.062;34.834;2023-08-06T00:38:44;3.00;;;2.13;;
75935;SDS011;64614;32.062;34.834;2023-08-06T00:41:10;2.78;;;1.90;;
75935;SDS011;64614;32.062;34.834;2023-08-06T00:43:35;3.08;;;2.00;;
75935;SDS011;64614;32.062;34.834;2023-08-06T00:46:01;3.00;;;2.10;;
75935;SDS011;64614;32.062;34.834;2023-08-06T00:48:27;3.95;;;2.38;;
75935;SDS011;64614;32.062;34.834;2023-08-06T00:50:52;3.10;;;1.90;;
75935;SDS011;64614;32.062;34.834;2023-08-06T00:53:18;3.50;;;2.25;;
75935;SDS011;64614;32.062;34.834;2023-08-06T00:55:44;2.35;;;1.83;;
75935;SDS011;64614;32.062;34.834;2023-08-06T00:58:10;4.00;;;2.17;;
75935;SDS011;64614;32.062;34.834;2023-08-06T01:00:36;3.20;;;2.13;;
75935;SDS011;64614;32.062;34.834;2023-08-06T01:03:03;2.70;;;1.90;;
75935;SDS011;64614;32.062;34.834;2023-08-06T01:05:28;2.83;;;2.08;;
75935;SDS011;64614;32.062;34.834;2023-08-06T01:16:08;3.20;;;2.10;;
75935;SDS011;64614;32.062;34.834;2023-08-06T01:18:35;3.90;;;2.20;;
75935;SDS011;64614;32.062;34.834;2023-08-06T01:21:02;3.47;;;2.17;;
75935;SDS011;64614;32.062;34.834;2023-08-06T01:23:28;3.47;;;2.03;;
75935;SDS011;64614;32.062;34.834;2023-08-06T01:29:12;3.40;;;2.20;;
75935;SDS011;64614;32.062;34.834;2023-08-06T01:31:44;3.38;;;2.10;;
75935;SDS011;64614;32.062;34.834;2023-08-06T01:34:20;3.03;;;2.28;;
75935;SDS011;64614;32.062;34.834;2023-08-06T01:36:47;2.50;;;1.75;;
75935;SDS011;64614;32.062;34.834;2023-08-06T01:39:13;3.05;;;2.03;;
75935;SDS011;64614;32.062;34.834;2023-08-06T01:41:39;3.38;;;2.20;;
75935;SDS011;64614;32.062;34.834;2023-08-06T01:44:04;3.30;;;2.05;;
75935;SDS011;64614;32.062;34.834;2023-08-06T01:46:30;3.13;;;2.13;;
75935;SDS011;64614;32.062;34.834;2023-08-06T01:48:56;3.15;;;2.20;;
75935;SDS011;64614;32.062;34.834;2023-08-06T01:51:22;2.78;;;2.03;;
75935;SDS011;64614;32.062;34.834;2023-08-06T01:53:47;3.92;;;2.15;;
75935;SDS011;64614;32.062;34.834;2023-08-06T01:56:13;3.25;;;2.20;;
75935;SDS011;64614;32.062;34.834;2023-08-06T01:58:39;3.20;;;2.10;;
75935;SDS011;64614;32.062;34.834;2023-08-06T02:01:04;3.80;;;2.30;;
75935;SDS011;64614;32.062;34.834;2023-08-06T02:03:30;3.95;;;2.17;;
75935;SDS011;64614;32.062;34.834;2023-08-06T02:05:56;3.35;;;2.25;;
75935;SDS011;64614;32.062;34.834;2023-08-06T02:08:21;3.97;;;2.45;;
75935;SDS011;64614;32.062;34.834;2023-08-06T02:10:47;3.72;;;2.22;;
75935;SDS011;64614;32.062;34.834;2023-08-06T02:13:13;3.25;;;2.00;;
75935;SDS011;64614;32.062;34.834;2023-08-06T02:15:42;3.10;;;2.25;;
75935;SDS011;64614;32.062;34.834;2023-08-06T02:18:08;3.70;;;2.30;;
75935;SDS011;64614;32.062;34.834;2023-08-06T02:20:34;2.75;;;2.15;;
75935;SDS011;64614;32.062;34.834;2023-08-06T02:23:00;3.10;;;2.20;;
75935;SDS011;64614;32.062;34.834;2023-08-06T02:25:25;2.97;;;2.28;;
75935;SDS011;64614;32.062;34.834;2023-08-06T02:27:51;3.30;;;2.10;;
75935;SDS011;64614;32.062;34.834;2023-08-06T02:30:16;2.55;;;2.03;;
75935;SDS011;64614;32.062;34.834;2023-08-06T02:32:42;3.00;;;2.05;;
75935;SDS011;64614;32.062;34.834;2023-08-06T02:35:08;2.80;;;2.15;;
75935;SDS011;64614;32.062;34.834;2023-08-06T02:37:34;3.60;;;2.20;;
75935;SDS011;64614;32.062;34.834;2023-08-06T02:39:59;3.42;;;2.03;;
75935;SDS011;64614;32.062;34.834;2023-08-06T02:42:25;3.63;;;2.10;;
75935;SDS011;64614;32.062;34.834;2023-08-06T02:44:52;2.55;;;1.80;;
75935;SDS011;64614;32.062;34.834;2023-08-06T02:47:20;3.45;;;2.00;;
75935;SDS011;64614;32.062;34.834;2023-08-06T02:49:46;3.33;;;2.10;;
75935;SDS011;64614;32.062;34.834;2023-08-06T02:52:11;3.33;;;2.08;;
75935;SDS011;64614;32.062;34.834;2023-08-06T02:54:37;2.85;;;1.98;;
75935;SDS011;64614;32.062;34.834;2023-08-06T02:57:03;2.95;;;2.10;;
75935;SDS011;64614;32.062;34.834;2023-08-06T02:59:30;3.50;;;2.22;;
75935;SDS011;64614;32.062;34.834;2023-08-06T03:01:56;2.38;;;1.80;;
75935;SDS011;64614;32.062;34.834;2023-08-06T03:04:21;3.22;;;2.22;;
75935;SDS011;64614;32.062;34.834;2023-08-06T03:06:49;4.22;;;2.60;;
75935;SDS011;64614;32.062;34.834;2023-08-06T03:09:15;3.80;;;2.40;;
75935;SDS011;64614;32.062;34.834;2023-08-06T03:11:41;3.00;;;2.20;;
75935;SDS011;64614;32.062;34.834;2023-08-06T03:14:07;3.45;;;2.20;;
75935;SDS011;64614;32.062;34.834;2023-08-06T03:16:33;3.33;;;2.22;;
75935;SDS011;64614;32.062;34.834;2023-08-06T03:18:58;3.38;;;2.05;;
75935;SDS011;64614;32.062;34.834;2023-08-06T03:21:24;3.35;;;2.20;;
75935;SDS011;64614;32.062;34.834;2023-08-06T03:23:50;3.38;;;2.10;;
75935;SDS011;64614;32.062;34.834;2023-08-06T03:26:15;3.13;;;2.22;;
75935;SDS011;64614;32.062;34.834;2023-08-06T03:28:41;3.75;;;2.38;;
75935;SDS011;64614;32.062;34.834;2023-08-06T03:31:07;3.67;;;2.50;;
75935;SDS011;64614;32.062;34.834;2023-08-06T03:33:32;3.45;;;2.30;;
75935;SDS011;64614;32.062;34.834;2023-08-06T03:35:58;3.80;;;2.50;;
75935;SDS011;64614;32.062;34.834;2023-08-06T03:38:24;3.55;;;2.17;;
75935;SDS011;64614;32.062;34.834;2023-08-06T03:40:49;3.63;;;2.42;;
75935;SDS011;64614;32.062;34.834;2023-08-06T03:43:15;3.75;;;2.60;;
75935;SDS011;64614;32.062;34.834;2023-08-06T03:45:41;3.75;;;2.40;;
75935;SDS011;64614;32.062;34.834;2023-08-06T03:48:07;2.10;;;1.83;;
75935;SDS011;64614;32.062;34.834;2023-08-06T03:50:33;3.70;;;2.50;;
75935;SDS011;64614;32.062;34.834;2023-08-06T03:52:59;4.38;;;2.60;;
75935;SDS011;64614;32.062;34.834;2023-08-06T03:55:24;4.05;;;2.50;;
75935;SDS011;64614;32.062;34.834;2023-08-06T03:57:50;3.47;;;2.40;;
75935;SDS011;64614;32.062;34.834;2023-08-06T04:00:17;3.58;;;2.50;;
75935;SDS011;64614;32.062;34.834;2023-08-06T04:02:43;4.53;;;2.65;;
75935;SDS011;64614;32.062;34.834;2023-08-06T04:05:09;3.70;;;2.72;;
75935;SDS011;64614;32.062;34.834;2023-08-06T04:07:35;3.60;;;2.50;;
75935;SDS011;64614;32.062;34.834;2023-08-06T04:10:02;4.13;;;2.55;;
75935;SDS011;64614;32.062;34.834;2023-08-06T04:12:29;3.92;;;2.50;;
75935;SDS011;64614;32.062;34.834;2023-08-06T04:14:56;3.22;;;2.15;;
75935;SDS011;64614;32.062;34.834;2023-08-06T04:17:23;3.85;;;2.55;;
75935;SDS011;64614;32.062;34.834;2023-08-06T04:19:52;4.20;;;2.65;;
75935;SDS011;64614;32.062;34.834;2023-08-06T04:22:20;4.22;;;2.70;;
75935;SDS011;64614;32.062;34.834;2023-08-06T04:24:46;3.50;;;2.30;;
75935;SDS011;64614;32.062;34.834;2023-08-06T04:27:12;4.72;;;2.80;;
75935;SDS011;64614;32.062;34.834;2023-08-06T04:29:39;4.55;;;2.75;;
75935;SDS011;64614;32.062;34.834;2023-08-06T04:32:06;3.53;;;2.35;;
75935;SDS011;64614;32.062;34.834;2023-08-06T04:34:34;3.92;;;2.63;;
75935;SDS011;64614;32.062;34.834;2023-08-06T04:37:01;3.67;;;2.58;;
75935;SDS011;64614;32.062;34.834;2023-08-06T04:39:27;4.65;;;2.50;;
75935;SDS011;64614;32.062;34.834;2023-08-06T04:41:52;3.13;;;2.17;;
75935;SDS011;64614;32.062;34.834;2023-08-06T04:44:18;3.50;;;2.30;;
75935;SDS011;64614;32.062;34.834;2023-08-06T04:46:44;3.05;;;2.20;;
75935;SDS011;64614;32.062;34.834;2023-08-06T04:49:09;4.05;;;2.50;;
75935;SDS011;64614;32.062;34.834;2023-08-06T04:51:35;3.47;;;2.60;;
75935;SDS011;64614;32.062;34.834;2023-08-06T04:54:00;4.15;;;2.35;;
75935;SDS011;64614;32.062;34.834;2023-08-06T04:56:26;3.75;;;2.30;;
75935;SDS011;64614;32.062;34.834;2023-08-06T04:58:52;3.70;;;2.50;;
75935;SDS011;64614;32.062;34.834;2023-08-06T05:01:18;3.58;;;2.38;;
75935;SDS011;64614;32.062;34.834;2023-08-06T05:03:44;3.92;;;2.58;;
75935;SDS011;64614;32.062;34.834;2023-08-06T05:06:09;4.22;;;2.72;;
75935;SDS011;64614;32.062;34.834;2023-08-06T05:08:35;3.75;;;2.20;;
75935;SDS011;64614;32.062;34.834;2023-08-06T05:11:01;4.03;;;2.47;;
75935;SDS011;64614;32.062;34.834;2023-08-06T05:13:27;4.20;;;2.50;;
75935;SDS011;64614;32.062;34.834;2023-08-06T05:15:53;4.82;;;2.70;;
75935;SDS011;64614;32.062;34.834;2023-08-06T05:18:19;3.80;;;2.35;;
75935;SDS011;64614;32.062;34.834;2023-08-06T05:20:45;4.28;;;2.40;;
75935;SDS011;64614;32.062;34.834;2023-08-06T05:23:10;3.92;;;2.60;;
75935;SDS011;64614;32.062;34.834;2023-08-06T05:25:36;4.43;;;2.75;;
75935;SDS011;64614;32.062;34.834;2023-08-06T05:28:05;4.38;;;2.80;;
75935;SDS011;64614;32.062;34.834;2023-08-06T05:30:31;4.18;;;2.50;;
75935;SDS011;64614;32.062;34.834;2023-08-06T05:32:57;4.50;;;2.42;;
75935;SDS011;64614;32.062;34.834;2023-08-06T05:35:23;3.97;;;2.60;;
75935;SDS011;64614;32.062;34.834;2023-08-06T05:37:52;4.95;;;2.58;;
75935;SDS011;64614;32.062;34.834;2023-08-06T05:40:18;4.13;;;2.50;;
75935;SDS011;64614;32.062;34.834;2023-08-06T05:42:44;4.20;;;2.40;;
75935;SDS011;64614;32.062;34.834;2023-08-06T05:45:09;3.72;;;2.20;;
75935;SDS011;64614;32.062;34.834;2023-08-06T05:47:35;4.40;;;2.80;;
75935;SDS011;64614;32.062;34.834;2023-08-06T05:50:01;3.65;;;2.50;;
75935;SDS011;64614;32.062;34.834;2023-08-06T05:52:26;4.07;;;2.92;;
75935;SDS011;64614;32.062;34.834;2023-08-06T05:54:52;3.47;;;2.13;;
75935;SDS011;64614;32.062;34.834;2023-08-06T05:57:18;4.00;;;2.70;;
75935;SDS011;64614;32.062;34.834;2023-08-06T05:59:43;3.40;;;2.40;;
75935;SDS011;64614;32.062;34.834;2023-08-06T06:02:09;3.25;;;2.22;;
75935;SDS011;64614;32.062;34.834;2023-08-06T06:04:35;4.18;;;2.47;;
75935;SDS011;64614;32.062;34.834;2023-08-06T06:07:02;4.30;;;2.70;;
75935;SDS011;64614;32.062;34.834;2023-08-06T06:09:28;4.07;;;2.67;;
75935;SDS011;64614;32.062;34.834;2023-08-06T06:11:54;4.65;;;2.33;;
75935;SDS011;64614;32.062;34.834;2023-08-06T06:14:19;4.40;;;2.45;;
75935;SDS011;64614;32.062;34.834;2023-08-06T06:16:45;4.80;;;2.70;;
75935;SDS011;64614;32.062;34.834;2023-08-06T06:19:11;5.05;;;3.10;;
75935;SDS011;64614;32.062;34.834;2023-08-06T06:21:37;3.88;;;2.67;;
75935;SDS011;64614;32.062;34.834;2023-08-06T06:24:04;4.30;;;2.50;;
75935;SDS011;64614;32.062;34.834;2023-08-06T06:26:31;4.63;;;2.58;;
75935;SDS011;64614;32.062;34.834;2023-08-06T06:28:57;5.28;;;2.67;;
75935;SDS011;64614;32.062;34.834;2023-08-06T06:31:22;4.10;;;2.80;;
75935;SDS011;64614;32.062;34.834;2023-08-06T06:33:49;3.88;;;2.63;;
75935;SDS011;64614;32.062;34.834;2023-08-06T06:36:14;4.05;;;2.70;;
75935;SDS011;64614;32.062;34.834;2023-08-06T06:38:40;4.35;;;2.92;;
75935;SDS011;64614;32.062;34.834;2023-08-06T06:41:06;4.32;;;2.85;;
75935;SDS011;64614;32.062;34.834;2023-08-06T06:43:32;3.88;;;2.50;;
75935;SDS011;64614;32.062;34.834;2023-08-06T06:45:59;3.92;;;2.25;;
75935;SDS011;64614;32.062;34.834;2023-08-06T06:48:28;4.07;;;2.60;;
75935;SDS011;64614;32.062;34.834;2023-08-06T06:50:55;5.32;;;2.50;;
75935;SDS011;64614;32.062;34.834;2023-08-06T06:53:21;3.63;;;2.40;;
75935;SDS011;64614;32.062;34.834;2023-08-06T06:55:56;4.75;;;2.80;;
75935;SDS011;64614;32.062;34.834;2023-08-06T07:00:52;4.63;;;2.75;;
75935;SDS011;64614;32.062;34.834;2023-08-06T07:03:19;5.03;;;2.55;;
75935;SDS011;64614;32.062;34.834;2023-08-06T07:05:45;4.47;;;2.80;;
75935;SDS011;64614;32.062;34.834;2023-08-06T07:08:11;3.83;;;2.70;;
75935;SDS011;64614;32.062;34.834;2023-08-06T07:10:37;4.30;;;2.63;;
75935;SDS011;64614;32.062;34.834;2023-08-06T07:13:03;4.40;;;2.80;;
75935;SDS011;64614;32.062;34.834;2023-08-06T07:15:29;4.10;;;2.65;;
75935;SDS011;64614;32.062;34.834;2023-08-06T07:17:55;3.95;;;2.67;;
75935;SDS011;64614;32.062;34.834;2023-08-06T07:20:20;4.13;;;2.70;;
75935;SDS011;64614;32.062;34.834;2023-08-06T07:22:46;4.07;;;2.70;;
75935;SDS011;64614;32.062;34.834;2023-08-06T07:25:12;4.75;;;3.20;;
75935;SDS011;64614;32.062;34.834;2023-08-06T07:27:38;4.53;;;2.80;;
75935;SDS011;64614;32.062;34.834;2023-08-06T07:30:04;4.60;;;2.92;;
75935;SDS011;64614;32.062;34.834;2023-08-06T07:32:30;3.97;;;2.75;;
75935;SDS011;64614;32.062;34.834;2023-08-06T07:34:56;4.50;;;3.00;;
75935;SDS011;64614;32.062;34.834;2023-08-06T07:37:25;4.18;;;2.83;;
75935;SDS011;64614;32.062;34.834;2023-08-06T07:39:53;3.65;;;2.40;;
75935;SDS011;64614;32.062;34.834;2023-08-06T07:42:19;4.55;;;2.70;;
75935;SDS011;64614;32.062;34.834;2023-08-06T07:44:55;4.13;;;2.80;;
75935;SDS011;64614;32.062;34.834;2023-08-06T07:47:23;3.88;;;2.83;;
75935;SDS011;64614;32.062;34.834;2023-08-06T07:49:48;3.33;;;2.42;;
75935;SDS011;64614;32.062;34.834;2023-08-06T07:52:14;4.30;;;2.60;;
75935;SDS011;64614;32.062;34.834;2023-08-06T07:54:40;4.18;;;2.90;;
75935;SDS011;64614;32.062;34.834;2023-08-06T07:57:06;4.63;;;2.90;;
75935;SDS011;64614;32.062;34.834;2023-08-06T07:59:31;4.28;;;2.50;;
75935;SDS011;64614;32.062;34.834;2023-08-06T08:01:57;4.63;;;2.72;;
75935;SDS011;64614;32.062;34.834;2023-08-06T08:04:24;4.68;;;2.80;;
75935;SDS011;64614;32.062;34.834;2023-08-06T08:06:50;3.95;;;2.67;;
75935;SDS011;64614;32.062;34.834;2023-08-06T08:09:15;4.60;;;2.90;;
75935;SDS011;64614;32.062;34.834;2023-08-06T08:11:41;4.03;;;2.80;;
75935;SDS011;64614;32.062;34.834;2023-08-06T08:14:07;4.07;;;2.78;;
75935;SDS011;64614;32.062;34.834;2023-08-06T08:16:33;4.45;;;2.80;;
75935;SDS011;64614;32.062;34.834;2023-08-06T08:18:59;3.95;;;2.70;;
75935;SDS011;64614;32.062;34.834;2023-08-06T08:21:25;4.22;;;2.63;;
75935;SDS011;64614;32.062;34.834;2023-08-06T08:23:51;4.03;;;2.60;;
75935;SDS011;64614;32.062;34.834;2023-08-06T08:26:16;4.40;;;2.65;;
75935;SDS011;64614;32.062;34.834;2023-08-06T08:28:42;4.90;;;2.95;;
75935;SDS011;64614;32.062;34.834;2023-08-06T08:31:08;4.22;;;2.80;;
75935;SDS011;64614;32.062;34.834;2023-08-06T08:33:34;4.78;;;2.80;;
75935;SDS011;64614;32.062;34.834;2023-08-06T08:36:00;4.03;;;2.40;;
75935;SDS011;64614;32.062;34.834;2023-08-06T08:38:26;3.95;;;2.50;;
75935;SDS011;64614;32.062;34.834;2023-08-06T08:40:52;3.63;;;2.70;;
75935;SDS011;64614;32.062;34.834;2023-08-06T08:43:22;4.30;;;2.75;;
75935;SDS011;64614;32.062;34.834;2023-08-06T08:45:52;4.20;;;2.90;;
75935;SDS011;64614;32.062;34.834;2023-08-06T08:48:24;4.35;;;2.65;;
75935;SDS011;64614;32.062;34.834;2023-08-06T08:50:49;4.30;;;2.50;;
75935;SDS011;64614;32.062;34.834;2023-08-06T08:53:16;4.75;;;2.67;;
75935;SDS011;64614;32.062;34.834;2023-08-06T08:55:46;3.70;;;2.47;;
75935;SDS011;64614;32.062;34.834;2023-08-06T08:58:13;4.53;;;2.80;;
75935;SDS011;64614;32.062;34.834;2023-08-06T09:00:42;4.72;;;3.03;;
75935;SDS011;64614;32.062;34.834;2023-08-06T09:03:11;3.90;;;2.75;;
75935;SDS011;64614;32.062;34.834;2023-08-06T09:05:36;4.43;;;2.70;;
75935;SDS011;64614;32.062;34.834;2023-08-06T09:08:08;5.22;;;3.53;;
75935;SDS011;64614;32.062;34.834;2023-08-06T09:10:41;4.03;;;2.83;;
75935;SDS011;64614;32.062;34.834;2023-08-06T09:13:08;4.28;;;2.72;;
75935;SDS011;64614;32.062;34.834;2023-08-06T09:15:34;4.25;;;2.70;;
75935;SDS011;64614;32.062;34.834;2023-08-06T09:18:00;3.85;;;2.30;;
75935;SDS011;64614;32.062;34.834;2023-08-06T09:20:35;4.10;;;2.80;;
75935;SDS011;64614;32.062;34.834;2023-08-06T09:23:09;5.15;;;3.00;;
75935;SDS011;64614;32.062;34.834;2023-08-06T09:25:39;4.43;;;2.83;;
75935;SDS011;64614;32.062;34.834;2023-08-06T09:28:07;4.63;;;2.58;;
75935;SDS011;64614;32.062;34.834;2023-08-06T09:30:34;3.78;;;2.50;;
75935;SDS011;64614;32.062;34.834;2023-08-06T09:33:01;4.57;;;2.70;;
75935;SDS011;64614;32.062;34.834;2023-08-06T09:35:28;4.20;;;2.50;;
75935;SDS011;64614;32.062;34.834;2023-08-06T09:37:55;4.05;;;2.58;;
75935;SDS011;64614;32.062;34.834;2023-08-06T09:42:54;3.80;;;2.65;;
75935;SDS011;64614;32.062;34.834;2023-08-06T09:45:20;4.35;;;2.72;;
75935;SDS011;64614;32.062;34.834;2023-08-06T09:47:49;3.70;;;2.60;;
75935;SDS011;64614;32.062;34.834;2023-08-06T09:50:16;4.10;;;2.42;;
75935;SDS011;64614;32.062;34.834;2023-08-06T09:52:46;3.65;;;2.65;;
75935;SDS011;64614;32.062;34.834;2023-08-06T09:55:15;3.90;;;2.70;;
75935;SDS011;64614;32.062;34.834;2023-08-06T09:57:42;3.55;;;2.60;;
75935;SDS011;64614;32.062;34.834;2023-08-06T10:00:11;3.22;;;2.45;;
75935;SDS011;64614;32.062;34.834;2023-08-06T10:02:38;3.85;;;2.35;;
75935;SDS011;64614;32.062;34.834;2023-08-06T10:05:05;4.03;;;2.65;;
75935;SDS011;64614;32.062;34.834;2023-08-06T10:07:31;4.25;;;2.50;;
75935;SDS011;64614;32.062;34.834;2023-08-06T10:09:58;3.47;;;2.47;;
75935;SDS011;64614;32.062;34.834;2023-08-06T10:12:24;3.75;;;2.75;;
75935;SDS011;64614;32.062;34.834;2023-08-06T10:14:52;4.13;;;2.70;;
75935;SDS011;64614;32.062;34.834;2023-08-06T10:17:20;3.50;;;2.30;;
75935;SDS011;64614;32.062;34.834;2023-08-06T10:19:47;4.25;;;2.80;;
75935;SDS011;64614;32.062;34.834;2023-08-06T10:22:15;3.33;;;2.42;;
75935;SDS011;64614;32.062;34.834;2023-08-06T10:29:47;3.92;;;2.70;;
75935;SDS011;64614;32.062;34.834;2023-08-06T10:32:14;3.92;;;2.72;;
75935;SDS011;64614;32.062;34.834;2023-08-06T10:35:13;3.40;;;2.33;;
75935;SDS011;64614;32.062;34.834;2023-08-06T10:40:01;3.88;;;2.70;;
75935;SDS011;64614;32.062;34.834;2023-08-06T10:42:28;3.08;;;2.33;;
75935;SDS011;64614;32.062;34.834;2023-08-06T10:47:41;4.65;;;2.70;;
75935;SDS011;64614;32.062;34.834;2023-08-06T10:50:07;3.45;;;2.30;;
75935;SDS011;64614;32.062;34.834;2023-08-06T10:55:01;4.15;;;2.55;;
75935;SDS011;64614;32.062;34.834;2023-08-06T10:57:27;4.00;;;2.47;;
75935;SDS011;64614;32.062;34.834;2023-08-06T10:59:52;3.53;;;2.50;;
75935;SDS011;64614;32.062;34.834;2023-08-06T11:02:18;3.25;;;2.38;;
75935;SDS011;64614;32.062;34.834;2023-08-06T11:04:44;4.05;;;2.40;;
75935;SDS011;64614;32.062;34.834;2023-08-06T11:07:09;5.35;;;2.60;;
75935;SDS011;64614;32.062;34.834;2023-08-06T11:09:35;3.22;;;2.40;;
75935;SDS011;64614;32.062;34.834;2023-08-06T11:12:02;3.22;;;2.50;;
75935;SDS011;64614;32.062;34.834;2023-08-06T11:14:30;3.28;;;2.22;;
75935;SDS011;64614;32.062;34.834;2023-08-06T11:16:55;3.25;;;2.38;;
75935;SDS011;64614;32.062;34.834;2023-08-06T11:19:22;2.95;;;2.10;;
75935;SDS011;64614;32.062;34.834;2023-08-06T11:21:49;3.60;;;2.60;;
75935;SDS011;64614;32.062;34.834;2023-08-06T11:24:16;3.38;;;2.40;;
75935;SDS011;64614;32.062;34.834;2023-08-06T11:26:42;3.33;;;2.42;;
75935;SDS011;64614;32.062;34.834;2023-08-06T11:29:09;3.78;;;2.42;;
75935;SDS011;64614;32.062;34.834;2023-08-06T11:31:35;3.60;;;2.47;;
75935;SDS011;64614;32.062;34.834;2023-08-06T11:34:01;3.88;;;2.53;;
75935;SDS011;64614;32.062;34.834;2023-08-06T11:36:31;3.42;;;2.20;;
75935;SDS011;64614;32.062;34.834;2023-08-06T11:38:58;2.80;;;2.20;;
75935;SDS011;64614;32.062;34.834;2023-08-06T11:41:28;3.58;;;2.35;;
75935;SDS011;64614;32.062;34.834;2023-08-06T11:43:55;3.08;;;2.35;;
75935;SDS011;64614;32.062;34.834;2023-08-06T11:46:21;4.18;;;2.50;;
75935;SDS011;64614;32.062;34.834;2023-08-06T11:48:58;3.13;;;2.30;;
75935;SDS011;64614;32.062;34.834;2023-08-06T11:51:24;3.50;;;2.25;;
75935;SDS011;64614;32.062;34.834;2023-08-06T11:53:56;3.97;;;2.42;;
75935;SDS011;64614;32.062;34.834;2023-08-06T11:56:23;3.88;;;2.40;;
75935;SDS011;64614;32.062;34.834;2023-08-06T11:58:51;3.80;;;2.40;;
75935;SDS011;64614;32.062;34.834;2023-08-06T12:01:16;3.20;;;2.40;;
75935;SDS011;64614;32.062;34.834;2023-08-06T12:03:43;3.88;;;2.50;;
75935;SDS011;64614;32.062;34.834;2023-08-06T12:06:09;3.42;;;2.13;;
75935;SDS011;64614;32.062;34.834;2023-08-06T12:08:35;3.63;;;2.40;;
75935;SDS011;64614;32.062;34.834;2023-08-06T12:11:00;3.40;;;2.30;;
75935;SDS011;64614;32.062;34.834;2023-08-06T12:13:26;3.13;;;2.40;;
75935;SDS011;64614;32.062;34.834;2023-08-06T12:15:53;3.13;;;2.35;;
75935;SDS011;64614;32.062;34.834;2023-08-06T12:18:19;4.05;;;2.60;;
75935;SDS011;64614;32.062;34.834;2023-08-06T12:20:45;3.95;;;2.55;;
75935;SDS011;64614;32.062;34.834;2023-08-06T12:23:11;3.13;;;2.30;;
75935;SDS011;64614;32.062;34.834;2023-08-06T12:25:40;3.70;;;2.42;;
75935;SDS011;64614;32.062;34.834;2023-08-06T12:28:06;3.67;;;2.40;;
75935;SDS011;64614;32.062;34.834;2023-08-06T12:30:32;2.80;;;2.30;;
75935;SDS011;64614;32.062;34.834;2023-08-06T12:32:58;4.20;;;2.40;;
75935;SDS011;64614;32.062;34.834;2023-08-06T12:35:24;2.83;;;2.10;;
75935;SDS011;64614;32.062;34.834;2023-08-06T12:37:50;3.70;;;2.30;;
75935;SDS011;64614;32.062;34.834;2023-08-06T12:42:44;3.50;;;2.30;;
75935;SDS011;64614;32.062;34.834;2023-08-06T12:45:11;3.13;;;2.50;;
75935;SDS011;64614;32.062;34.834;2023-08-06T12:47:36;4.15;;;2.60;;
75935;SDS011;64614;32.062;34.834;2023-08-06T12:50:02;3.97;;;2.60;;
75935;SDS011;64614;32.062;34.834;2023-08-06T12:52:28;3.17;;;2.10;;
75935;SDS011;64614;32.062;34.834;2023-08-06T12:54:53;4.43;;;2.47;;
75935;SDS011;64614;32.062;34.834;2023-08-06T12:57:19;3.08;;;2.13;;
75935;SDS011;64614;32.062;34.834;2023-08-06T12:59:44;3.17;;;2.10;;
75935;SDS011;64614;32.062;34.834;2023-08-06T13:02:10;4.20;;;2.53;;
75935;SDS011;64614;32.062;34.834;2023-08-06T13:04:36;3.92;;;2.25;;
75935;SDS011;64614;32.062;34.834;2023-08-06T13:07:01;3.88;;;2.22;;
75935;SDS011;64614;32.062;34.834;2023-08-06T13:09:27;3.47;;;2.50;;
75935;SDS011;64614;32.062;34.834;2023-08-06T13:11:53;2.95;;;2.10;;
75935;SDS011;64614;32.062;34.834;2023-08-06T13:14:18;3.35;;;2.30;;
75935;SDS011;64614;32.062;34.834;2023-08-06T13:16:44;2.92;;;2.17;;
75935;SDS011;64614;32.062;34.834;2023-08-06T13:19:10;3.33;;;2.25;;
75935;SDS011;64614;32.062;34.834;2023-08-06T13:24:07;3.67;;;2.20;;
75935;SDS011;64614;32.062;34.834;2023-08-06T13:26:33;3.90;;;2.40;;
75935;SDS011;64614;32.062;34.834;2023-08-06T13:28:59;2.60;;;1.85;;
75935;SDS011;64614;32.062;34.834;2023-08-06T13:31:26;3.60;;;2.40;;
75935;SDS011;64614;32.062;34.834;2023-08-06T13:33:53;3.17;;;2.15;;
75935;SDS011;64614;32.062;34.834;2023-08-06T13:36:20;3.28;;;2.40;;
75935;SDS011;64614;32.062;34.834;2023-08-06T13:38:47;3.72;;;2.22;;
75935;SDS011;64614;32.062;34.834;2023-08-06T13:41:13;3.60;;;2.33;;
75935;SDS011;64614;32.062;34.834;2023-08-06T13:43:38;3.28;;;2.05;;
75935;SDS011;64614;32.062;34.834;2023-08-06T13:46:05;3.50;;;2.47;;
75935;SDS011;64614;32.062;34.834;2023-08-06T13:48:30;2.97;;;2.38;;
75935;SDS011;64614;32.062;34.834;2023-08-06T13:50:56;3.50;;;2.20;;
75935;SDS011;64614;32.062;34.834;2023-08-06T13:53:22;3.47;;;2.28;;
75935;SDS011;64614;32.062;34.834;2023-08-06T13:55:47;3.97;;;2.53;;
75935;SDS011;64614;32.062;34.834;2023-08-06T13:58:13;3.40;;;2.20;;
75935;SDS011;64614;32.062;34.834;2023-08-06T14:00:39;3.72;;;2.35;;
75935;SDS011;64614;32.062;34.834;2023-08-06T14:03:04;3.88;;;2.40;;
75935;SDS011;64614;32.062;34.834;2023-08-06T14:05:30;2.63;;;1.92;;
75935;SDS011;64614;32.062;34.834;2023-08-06T14:07:55;4.18;;;2.50;;
75935;SDS011;64614;32.062;34.834;2023-08-06T14:10:21;3.58;;;2.20;;
75935;SDS011;64614;32.062;34.834;2023-08-06T14:12:47;3.88;;;2.58;;
75935;SDS011;64614;32.062;34.834;2023-08-06T14:15:12;2.80;;;2.00;;
75935;SDS011;64614;32.062;34.834;2023-08-06T14:17:38;3.13;;;2.08;;
75935;SDS011;64614;32.062;34.834;2023-08-06T14:20:05;3.63;;;2.20;;
75935;SDS011;64614;32.062;34.834;2023-08-06T14:22:33;3.72;;;2.30;;
75935;SDS011;64614;32.062;34.834;2023-08-06T14:24:58;3.40;;;2.20;;
75935;SDS011;64614;32.062;34.834;2023-08-06T14:27:24;3.55;;;2.20;;
75935;SDS011;64614;32.062;34.834;2023-08-06T14:29:50;3.33;;;2.20;;
75935;SDS011;64614;32.062;34.834;2023-08-06T14:32:16;3.90;;;2.33;;
75935;SDS011;64614;32.062;34.834;2023-08-06T14:34:43;2.72;;;1.95;;
75935;SDS011;64614;32.062;34.834;2023-08-06T14:37:09;3.45;;;2.20;;
75935;SDS011;64614;32.062;34.834;2023-08-06T14:39:35;4.22;;;2.40;;
75935;SDS011;64614;32.062;34.834;2023-08-06T14:42:01;3.10;;;2.10;;
75935;SDS011;64614;32.062;34.834;2023-08-06T14:44:27;3.97;;;2.30;;
75935;SDS011;64614;32.062;34.834;2023-08-06T14:46:53;3.63;;;2.30;;
75935;SDS011;64614;32.062;34.834;2023-08-06T14:49:18;3.55;;;2.25;;
75935;SDS011;64614;32.062;34.834;2023-08-06T14:51:44;3.65;;;2.00;;
75935;SDS011;64614;32.062;34.834;2023-08-06T14:54:10;3.50;;;2.10;;
75935;SDS011;64614;32.062;34.834;2023-08-06T14:56:36;3.28;;;2.25;;
75935;SDS011;64614;32.062;34.834;2023-08-06T14:59:01;3.15;;;1.98;;
75935;SDS011;64614;32.062;34.834;2023-08-06T15:01:27;3.60;;;2.10;;
75935;SDS011;64614;32.062;34.834;2023-08-06T15:03:52;3.53;;;2.05;;